Time;durP1;ratioP1;P1;durP2;ratioP2;P2;SDS_P1;SDS_P2;PMS_P1;PMS_P2;Temp;Humidity;BMP_temperature;BMP_pressure;BME280_temperature;BME280_humidity;BME280_pressure;Samples;Min_cycle;Max_cycle;Signal;HPM_P1;HPM_P2
2022/11/19 00:01:35;;;;;;;55.72;29.30;;;;;;;;;;5267158;28;20275;-81
2022/11/19 00:04:06;;;;;;;54.77;29.27;;;;;;;;;;5295603;28;20034;-81
2022/11/19 00:06:37;;;;;;;46.83;27.55;;;;;;;;;;5288367;28;20678;-81
2022/11/19 00:09:13;;;;;;;50.73;28.13;;;;;;;;;;5289866;28;20071;-81
2022/11/19 00:14:34;;;;;;;54.78;29.15;;;;;;;;;;5285325;28;20034;-81
2022/11/19 00:17:05;;;;;;;47.20;28.13;;;;;;;;;;5275284;28;20072;-81
2022/11/19 00:19:36;;;;;;;46.00;29.17;;;;;;;;;;5276370;28;20267;-81
2022/11/19 00:22:07;;;;;;;46.53;28.03;;;;;;;;;;5273732;28;20318;-81
2022/11/19 00:24:38;;;;;;;47.77;29.03;;;;;;;;;;5275647;28;20302;-81
2022/11/19 00:27:10;;;;;;;53.08;29.88;;;;;;;;;;5275090;28;20287;-81
2022/11/19 00:29:41;;;;;;;55.50;28.98;;;;;;;;;;5275531;28;20021;-81
2022/11/19 00:32:12;;;;;;;52.83;29.73;;;;;;;;;;5276332;28;20035;-81
2022/11/19 00:34:43;;;;;;;52.28;29.52;;;;;;;;;;5274839;28;20029;-81
2022/11/19 00:37:14;;;;;;;48.42;29.40;;;;;;;;;;5276424;28;21239;-81
2022/11/19 00:39:46;;;;;;;51.10;29.52;;;;;;;;;;5276281;28;20029;-81
2022/11/19 00:42:17;;;;;;;50.08;27.80;;;;;;;;;;5275853;28;20048;-81
2022/11/19 00:44:48;;;;;;;53.33;28.80;;;;;;;;;;5277027;28;20033;-81
2022/11/19 00:47:19;;;;;;;50.85;28.42;;;;;;;;;;5280478;28;20327;-81
2022/11/19 00:49:50;;;;;;;48.35;29.77;;;;;;;;;;5279665;28;20037;-81
2022/11/19 00:52:22;;;;;;;51.67;29.17;;;;;;;;;;5279483;28;20132;-81
2022/11/19 00:54:53;;;;;;;51.57;29.17;;;;;;;;;;5261532;28;20255;-81
2022/11/19 00:57:24;;;;;;;53.10;29.00;;;;;;;;;;5260711;28;20758;-81
2022/11/19 00:59:55;;;;;;;46.20;28.13;;;;;;;;;;5281143;28;20716;-81
2022/11/19 01:02:26;;;;;;;53.00;29.37;;;;;;;;;;5279237;28;20280;-81
2022/11/19 01:04:57;;;;;;;50.07;28.70;;;;;;;;;;5279524;28;20327;-81
2022/11/19 01:07:29;;;;;;;43.83;27.75;;;;;;;;;;5279740;28;20251;-81
2022/11/19 01:10:00;;;;;;;48.20;29.23;;;;;;;;;;5282048;28;20047;-81
2022/11/19 01:13:33;;;;;;;52.50;29.60;;;;;;;;;;5279117;28;20470;-80
2022/11/19 01:15:22;;;;;;;51.60;29.10;;;;;;;;;;5278167;28;20056;-81
2022/11/19 01:17:53;;;;;;;50.60;29.25;;;;;;;;;;5280203;28;20536;-80
2022/11/19 01:20:25;;;;;;;55.63;29.87;;;;;;;;;;5262178;28;20044;-80
2022/11/19 01:22:56;;;;;;;57.50;32.83;;;;;;;;;;5280036;28;20263;-80
2022/11/19 01:25:27;;;;;;;58.63;33.00;;;;;;;;;;5281554;28;20341;-81
2022/11/19 01:27:58;;;;;;;57.07;30.30;;;;;;;;;;5279561;28;20288;-81
2022/11/19 01:30:30;;;;;;;55.95;32.38;;;;;;;;;;5277614;28;20344;-81
2022/11/19 01:33:01;;;;;;;58.65;31.95;;;;;;;;;;5260938;28;20539;-81
2022/11/19 01:35:33;;;;;;;56.08;30.75;;;;;;;;;;5277338;28;20075;-81
2022/11/19 01:38:04;;;;;;;56.83;31.50;;;;;;;;;;5280030;28;20096;-80
2022/11/19 01:40:42;;;;;;;59.55;34.00;;;;;;;;;;5278459;28;20060;-81
2022/11/19 01:43:14;;;;;;;56.05;29.98;;;;;;;;;;5276586;28;20083;-80
2022/11/19 01:45:47;;;;;;;54.38;29.88;;;;;;;;;;5278518;28;20033;-80
2022/11/19 01:48:30;;;;;;;53.90;30.35;;;;;;;;;;5278969;28;20052;-81
2022/11/19 01:51:04;;;;;;;52.58;29.67;;;;;;;;;;5277031;28;20171;-81
2022/11/19 01:53:35;;;;;;;55.25;33.92;;;;;;;;;;5275939;28;20028;-81
2022/11/19 01:56:07;;;;;;;52.95;30.60;;;;;;;;;;5277241;28;20029;-81
2022/11/19 01:58:40;;;;;;;53.78;31.50;;;;;;;;;;5280232;28;20050;-81
2022/11/19 02:01:12;;;;;;;51.05;31.25;;;;;;;;;;5275082;28;20040;-81
2022/11/19 02:03:43;;;;;;;47.55;30.27;;;;;;;;;;5260673;28;20029;-81
2022/11/19 02:06:15;;;;;;;44.30;28.45;;;;;;;;;;5279087;28;20040;-81
2022/11/19 02:08:49;;;;;;;49.72;28.80;;;;;;;;;;5276647;28;20371;-81
2022/11/19 02:11:34;;;;;;;44.72;28.17;;;;;;;;;;5278788;28;20064;-81
2022/11/19 02:14:20;;;;;;;43.35;27.48;;;;;;;;;;5259422;28;20404;-81
2022/11/19 02:17:00;;;;;;;46.67;29.17;;;;;;;;;;5280419;28;20517;-81
2022/11/19 02:19:31;;;;;;;48.25;30.77;;;;;;;;;;5276283;28;20074;-81
2022/11/19 02:22:12;;;;;;;50.63;30.40;;;;;;;;;;5277680;28;20041;-81
2022/11/19 02:24:51;;;;;;;47.55;30.15;;;;;;;;;;5276928;28;21046;-81
2022/11/19 02:27:41;;;;;;;47.92;28.33;;;;;;;;;;5277339;28;20573;-81
2022/11/19 02:30:16;;;;;;;43.63;24.83;;;;;;;;;;5273278;28;20599;-81
2022/11/19 02:33:08;;;;;;;41.83;26.27;;;;;;;;;;5277590;28;20035;-81
2022/11/19 02:35:45;;;;;;;43.53;26.02;;;;;;;;;;5280707;28;20078;-81
2022/11/19 02:38:23;;;;;;;40.75;24.85;;;;;;;;;;5276655;28;20385;-81
2022/11/19 02:40:57;;;;;;;40.35;26.52;;;;;;;;;;5275008;28;20047;-81
2022/11/19 02:43:34;;;;;;;39.17;24.33;;;;;;;;;;5277666;28;20147;-81
2022/11/19 02:46:11;;;;;;;41.63;24.98;;;;;;;;;;5279173;28;20025;-81
2022/11/19 02:48:45;;;;;;;36.50;25.15;;;;;;;;;;5280337;28;20041;-81
2022/11/19 02:51:17;;;;;;;36.58;23.15;;;;;;;;;;5281855;28;20946;-81
2022/11/19 02:53:48;;;;;;;32.58;22.52;;;;;;;;;;5278370;28;20151;-81
2022/11/19 02:56:37;;;;;;;33.88;23.33;;;;;;;;;;5277717;28;20033;-81
2022/11/19 03:04:48;;;;;;;32.08;22.15;;;;;;;;;;5278068;28;20420;-81
2022/11/19 03:07:20;;;;;;;34.17;23.45;;;;;;;;;;5277348;28;20071;-81
2022/11/19 03:09:55;;;;;;;37.63;22.70;;;;;;;;;;5279281;28;20044;-81
2022/11/19 03:12:45;;;;;;;37.85;23.52;;;;;;;;;;5273618;28;20064;-81
2022/11/19 03:18:17;;;;;;;34.08;22.95;;;;;;;;;;5278609;28;20482;-81
2022/11/19 03:20:55;;;;;;;32.03;21.58;;;;;;;;;;5277409;28;20116;-81
2022/11/19 03:23:36;;;;;;;32.00;21.35;;;;;;;;;;5277254;28;20024;-81
2022/11/19 03:26:10;;;;;;;30.23;22.13;;;;;;;;;;5275570;28;20393;-81
2022/11/19 03:28:43;;;;;;;30.67;22.95;;;;;;;;;;5275728;28;20037;-80
2022/11/19 03:31:15;;;;;;;33.40;23.05;;;;;;;;;;5275819;28;20028;-81
2022/11/19 03:33:49;;;;;;;31.45;22.83;;;;;;;;;;5275086;28;20036;-80
2022/11/19 03:36:22;;;;;;;32.47;22.90;;;;;;;;;;5277953;28;20480;-80
2022/11/19 03:38:54;;;;;;;34.10;22.58;;;;;;;;;;5276615;28;20032;-81
2022/11/19 03:41:27;;;;;;;31.90;22.73;;;;;;;;;;5258962;28;20029;-81
2022/11/19 03:44:18;;;;;;;34.47;23.67;;;;;;;;;;5257780;28;20957;-81
2022/11/19 03:46:53;;;;;;;35.78;24.08;;;;;;;;;;5258899;28;20033;-81
2022/11/19 03:49:28;;;;;;;37.80;24.83;;;;;;;;;;5276626;28;20037;-81
2022/11/19 03:52:10;;;;;;;37.92;24.23;;;;;;;;;;5277936;28;20029;-81
2022/11/19 03:54:42;;;;;;;37.10;24.42;;;;;;;;;;5256585;28;20047;-81
2022/11/19 03:57:15;;;;;;;41.10;26.83;;;;;;;;;;5276004;28;20029;-81
2022/11/19 03:59:46;;;;;;;43.70;27.20;;;;;;;;;;5258303;28;20090;-80
2022/11/19 04:02:17;;;;;;;39.07;25.37;;;;;;;;;;5259667;28;20055;-80
2022/11/19 04:04:49;;;;;;;42.13;26.40;;;;;;;;;;5277284;28;20609;-80
2022/11/19 04:07:21;;;;;;;42.15;26.90;;;;;;;;;;5275999;28;20028;-80
2022/11/19 04:09:52;;;;;;;43.20;26.92;;;;;;;;;;5277469;28;20565;-81
2022/11/19 04:12:24;;;;;;;43.00;26.55;;;;;;;;;;5279865;28;20029;-81
2022/11/19 04:14:55;;;;;;;43.55;26.77;;;;;;;;;;5275462;28;20155;-81
2022/11/19 04:17:26;;;;;;;46.87;28.13;;;;;;;;;;5258675;28;20557;-81
2022/11/19 04:19:57;;;;;;;44.80;26.50;;;;;;;;;;5275495;28;20295;-81
2022/11/19 04:22:28;;;;;;;44.70;26.57;;;;;;;;;;5276210;28;20020;-80
2022/11/19 04:24:59;;;;;;;43.30;27.50;;;;;;;;;;5278639;28;20279;-81
2022/11/19 04:27:31;;;;;;;41.50;26.50;;;;;;;;;;5276406;28;20750;-81
2022/11/19 04:30:03;;;;;;;43.55;27.63;;;;;;;;;;5259214;28;20367;-80
2022/11/19 04:32:34;;;;;;;43.47;27.92;;;;;;;;;;5276987;28;20171;-81
2022/11/19 04:35:05;;;;;;;44.15;27.38;;;;;;;;;;5277475;28;20025;-81
2022/11/19 04:37:36;;;;;;;45.05;27.88;;;;;;;;;;5274341;28;20025;-80
2022/11/19 04:40:08;;;;;;;43.37;28.30;;;;;;;;;;5274970;28;20044;-80
2022/11/19 04:42:39;;;;;;;43.80;27.90;;;;;;;;;;5276976;28;20275;-81
2022/11/19 04:45:10;;;;;;;42.50;28.40;;;;;;;;;;5278002;28;20029;-80
2022/11/19 04:47:41;;;;;;;47.47;29.02;;;;;;;;;;5276569;28;20116;-80
2022/11/19 04:50:13;;;;;;;46.40;28.38;;;;;;;;;;5277145;28;20044;-80
2022/11/19 04:52:44;;;;;;;46.00;28.08;;;;;;;;;;5257745;28;20057;-80
2022/11/19 04:55:15;;;;;;;46.55;28.65;;;;;;;;;;5273336;28;20098;-80
2022/11/19 04:57:50;;;;;;;46.75;30.60;;;;;;;;;;5276556;28;20064;-80
2022/11/19 05:00:21;;;;;;;43.75;29.58;;;;;;;;;;5256016;28;20040;-80
2022/11/19 05:02:52;;;;;;;43.40;29.60;;;;;;;;;;5274840;28;20033;-81
2022/11/19 05:05:24;;;;;;;45.50;29.50;;;;;;;;;;5275028;28;20039;-80
2022/11/19 05:07:55;;;;;;;46.87;28.87;;;;;;;;;;5274347;28;20025;-81
2022/11/19 05:10:26;;;;;;;46.35;30.13;;;;;;;;;;5257089;28;20622;-81
2022/11/19 05:12:57;;;;;;;46.90;29.37;;;;;;;;;;5276051;28;20029;-81
2022/11/19 05:15:28;;;;;;;46.50;29.73;;;;;;;;;;5272904;28;20275;-80
2022/11/19 05:18:00;;;;;;;44.57;28.43;;;;;;;;;;5272809;28;20969;-80
2022/11/19 05:20:31;;;;;;;45.05;29.75;;;;;;;;;;5258958;28;20943;-80
2022/11/19 05:23:02;;;;;;;45.83;30.57;;;;;;;;;;5274004;28;20025;-81
2022/11/19 05:25:36;;;;;;;45.70;29.33;;;;;;;;;;5278446;28;20782;-80
2022/11/19 05:28:07;;;;;;;45.95;29.73;;;;;;;;;;5276418;28;20263;-81
2022/11/19 05:30:38;;;;;;;50.23;30.20;;;;;;;;;;5283732;28;20131;-80
2022/11/19 05:33:09;;;;;;;46.38;30.33;;;;;;;;;;5280824;28;20266;-80
2022/11/19 05:35:40;;;;;;;43.60;28.67;;;;;;;;;;5279678;28;20391;-80
2022/11/19 05:38:12;;;;;;;46.80;30.30;;;;;;;;;;5278806;28;20288;-81
2022/11/19 05:40:44;;;;;;;49.60;30.23;;;;;;;;;;5281844;28;20299;-80
2022/11/19 05:43:15;;;;;;;51.50;32.38;;;;;;;;;;5278942;28;20043;-80
2022/11/19 05:45:47;;;;;;;48.73;30.60;;;;;;;;;;5280349;28;20033;-80
2022/11/19 05:48:18;;;;;;;47.10;32.73;;;;;;;;;;5261345;28;20338;-80
2022/11/19 05:50:49;;;;;;;44.58;30.27;;;;;;;;;;5264674;28;20291;-80
2022/11/19 05:53:21;;;;;;;44.83;30.40;;;;;;;;;;5291992;28;20024;-80
2022/11/19 05:55:52;;;;;;;45.65;30.73;;;;;;;;;;5289390;28;20715;-80
2022/11/19 05:58:23;;;;;;;45.37;31.53;;;;;;;;;;5269041;28;20013;-80
2022/11/19 06:00:54;;;;;;;46.27;31.00;;;;;;;;;;5285911;28;20676;-81
2022/11/19 06:03:26;;;;;;;45.97;30.65;;;;;;;;;;5279863;28;20280;-81
2022/11/19 06:05:57;;;;;;;44.67;30.57;;;;;;;;;;5277544;28;20035;-80
2022/11/19 06:08:28;;;;;;;45.85;30.92;;;;;;;;;;5278126;28;20605;-80
2022/11/19 06:11:03;;;;;;;49.13;32.00;;;;;;;;;;5277673;28;20029;-80
2022/11/19 06:13:34;;;;;;;47.95;32.03;;;;;;;;;;5274378;28;20333;-80
2022/11/19 06:16:05;;;;;;;47.43;32.17;;;;;;;;;;5278572;28;20017;-80
2022/11/19 06:18:37;;;;;;;46.67;31.23;;;;;;;;;;5277769;28;20831;-80
2022/11/19 06:21:08;;;;;;;45.83;31.53;;;;;;;;;;5276828;28;20029;-80
2022/11/19 06:23:39;;;;;;;47.50;32.47;;;;;;;;;;5278960;28;20731;-80
2022/11/19 06:26:10;;;;;;;46.83;30.73;;;;;;;;;;5278248;28;20271;-80
2022/11/19 06:28:42;;;;;;;49.88;32.05;;;;;;;;;;5277464;28;20328;-80
2022/11/19 06:31:13;;;;;;;47.57;31.97;;;;;;;;;;5276437;28;20051;-80
2022/11/19 06:33:44;;;;;;;56.40;35.22;;;;;;;;;;5276319;28;20381;-80
2022/11/19 06:36:15;;;;;;;49.13;32.80;;;;;;;;;;5277314;28;20021;-80
2022/11/19 06:38:47;;;;;;;52.43;35.53;;;;;;;;;;5277437;28;20040;-80
2022/11/19 06:41:18;;;;;;;50.75;34.22;;;;;;;;;;5278249;28;20260;-80
2022/11/19 06:43:49;;;;;;;52.60;34.75;;;;;;;;;;5276773;28;20044;-81
2022/11/19 06:46:20;;;;;;;50.67;35.38;;;;;;;;;;5276595;28;20029;-80
2022/11/19 06:48:51;;;;;;;50.20;34.73;;;;;;;;;;5278356;28;20718;-80
2022/11/19 06:51:23;;;;;;;49.47;34.58;;;;;;;;;;5280410;28;20378;-80
2022/11/19 06:53:54;;;;;;;51.72;33.22;;;;;;;;;;5275205;28;20496;-80
2022/11/19 06:56:25;;;;;;;54.27;36.37;;;;;;;;;;5274395;28;20067;-80
2022/11/19 06:58:57;;;;;;;55.78;35.97;;;;;;;;;;5273443;28;20276;-80
2022/11/19 07:01:28;;;;;;;51.55;34.05;;;;;;;;;;5276973;28;20056;-80
2022/11/19 07:03:59;;;;;;;55.53;36.57;;;;;;;;;;5277023;28;20024;-80
2022/11/19 07:06:30;;;;;;;53.93;36.00;;;;;;;;;;5259980;28;20318;-80
2022/11/19 07:09:02;;;;;;;54.22;33.45;;;;;;;;;;5278418;28;20283;-80
2022/11/19 07:11:34;;;;;;;54.78;37.13;;;;;;;;;;5260743;28;20036;-80
2022/11/19 07:14:06;;;;;;;54.63;35.55;;;;;;;;;;5277940;28;20071;-80
2022/11/19 07:16:37;;;;;;;57.72;36.13;;;;;;;;;;5277939;28;20083;-80
2022/11/19 07:19:08;;;;;;;54.15;36.70;;;;;;;;;;5279252;28;20029;-80
2022/11/19 07:21:39;;;;;;;57.38;35.03;;;;;;;;;;5276665;28;20176;-80
2022/11/19 07:24:11;;;;;;;57.27;35.67;;;;;;;;;;5277625;28;20024;-80
2022/11/19 07:26:42;;;;;;;58.87;38.27;;;;;;;;;;5276561;28;20302;-80
2022/11/19 07:29:14;;;;;;;57.33;35.17;;;;;;;;;;5257947;28;20295;-80
2022/11/19 07:31:49;;;;;;;57.67;34.97;;;;;;;;;;5259698;28;20068;-80
2022/11/19 07:34:20;;;;;;;55.60;35.38;;;;;;;;;;5276173;28;20040;-80
2022/11/19 07:36:51;;;;;;;58.97;35.45;;;;;;;;;;5274269;28;20040;-80
2022/11/19 07:39:23;;;;;;;56.47;37.63;;;;;;;;;;5277160;28;20033;-80
2022/11/19 07:44:44;;;;;;;55.22;35.80;;;;;;;;;;5279190;28;20032;-80
2022/11/19 07:47:15;;;;;;;50.38;33.55;;;;;;;;;;5281640;28;20060;-80
2022/11/19 07:49:46;;;;;;;53.83;34.85;;;;;;;;;;5275617;28;20367;-80
2022/11/19 07:52:17;;;;;;;56.15;34.53;;;;;;;;;;5279236;28;20037;-80
2022/11/19 07:54:49;;;;;;;54.60;32.47;;;;;;;;;;5262857;28;20024;-80
2022/11/19 07:57:20;;;;;;;58.93;35.43;;;;;;;;;;5277361;28;20775;-80
2022/11/19 07:59:51;;;;;;;55.85;36.60;;;;;;;;;;5271873;28;20600;-80
2022/11/19 08:02:22;;;;;;;53.65;35.95;;;;;;;;;;5257887;28;20111;-80
2022/11/19 08:04:54;;;;;;;53.60;34.25;;;;;;;;;;5284077;28;20115;-79
2022/11/19 08:07:25;;;;;;;54.55;35.22;;;;;;;;;;5275488;28;20025;-80
2022/11/19 08:09:56;;;;;;;55.88;35.55;;;;;;;;;;5274813;28;20036;-80
2022/11/19 08:12:27;;;;;;;53.47;34.15;;;;;;;;;;5281562;28;20091;-79
2022/11/19 08:14:58;;;;;;;50.22;34.20;;;;;;;;;;5282078;28;20037;-80
2022/11/19 08:20:20;;;;;;;52.28;33.17;;;;;;;;;;5290419;28;20279;-80
2022/11/19 08:22:51;;;;;;;49.15;32.60;;;;;;;;;;5288971;28;20044;-80
2022/11/19 08:25:34;;;;;;;47.92;30.95;;;;;;;;;;5262233;28;20385;-80
2022/11/19 08:28:06;;;;;;;51.70;32.85;;;;;;;;;;5272989;28;20759;-80
2022/11/19 08:30:40;;;;;;;50.58;32.38;;;;;;;;;;5257423;28;20037;-80
2022/11/19 08:33:12;;;;;;;51.17;32.03;;;;;;;;;;5283663;28;20431;-79
2022/11/19 08:35:43;;;;;;;53.85;33.47;;;;;;;;;;5288770;28;20032;-79
2022/11/19 08:38:14;;;;;;;46.63;30.45;;;;;;;;;;5288266;28;20029;-79
2022/11/19 08:40:49;;;;;;;50.85;32.50;;;;;;;;;;5291127;28;20440;-79
2022/11/19 08:43:20;;;;;;;52.97;30.02;;;;;;;;;;5275126;28;20107;-79
2022/11/19 08:45:55;;;;;;;46.43;27.97;;;;;;;;;;5265306;28;20021;-79
2022/11/19 08:48:26;;;;;;;48.55;32.25;;;;;;;;;;5274448;28;20399;-80
2022/11/19 08:50:58;;;;;;;50.57;34.80;;;;;;;;;;5259956;28;20036;-80
2022/11/19 08:53:32;;;;;;;50.70;32.60;;;;;;;;;;5286826;28;20671;-81
2022/11/19 08:56:04;;;;;;;47.53;31.73;;;;;;;;;;5285131;28;20044;-81
2022/11/19 08:58:35;;;;;;;51.15;33.30;;;;;;;;;;5276954;28;20037;-81
2022/11/19 09:01:10;;;;;;;49.88;32.03;;;;;;;;;;5280209;28;20037;-81
2022/11/19 09:03:42;;;;;;;46.90;32.83;;;;;;;;;;5278847;28;20027;-81
2022/11/19 09:06:13;;;;;;;48.72;31.08;;;;;;;;;;5281227;28;20033;-81
2022/11/19 09:08:45;;;;;;;47.58;31.15;;;;;;;;;;5284969;28;20025;-81
2022/11/19 09:11:17;;;;;;;45.33;29.63;;;;;;;;;;5266563;28;20425;-81
2022/11/19 09:13:48;;;;;;;45.28;30.25;;;;;;;;;;5284143;28;20018;-81
2022/11/19 09:16:20;;;;;;;44.85;31.95;;;;;;;;;;5284429;28;20075;-81
2022/11/19 09:18:51;;;;;;;45.30;31.35;;;;;;;;;;5283882;28;20037;-81
2022/11/19 09:21:22;;;;;;;45.58;29.45;;;;;;;;;;5267348;28;20115;-81
2022/11/19 09:23:53;;;;;;;46.63;29.35;;;;;;;;;;5295840;28;20043;-81
2022/11/19 09:26:25;;;;;;;45.25;28.65;;;;;;;;;;5287807;28;20029;-78
2022/11/19 09:28:56;;;;;;;47.47;31.53;;;;;;;;;;5265080;28;20032;-81
2022/11/19 09:31:27;;;;;;;42.72;28.27;;;;;;;;;;5279662;28;20772;-80
2022/11/19 09:33:58;;;;;;;46.08;31.63;;;;;;;;;;5261229;28;20025;-80
2022/11/19 09:36:30;;;;;;;42.03;29.30;;;;;;;;;;5266058;28;20029;-79
2022/11/19 09:39:02;;;;;;;46.80;27.80;;;;;;;;;;5268149;28;20025;-80
2022/11/19 09:41:42;;;;;;;38.45;28.02;;;;;;;;;;5285680;28;20279;-78
2022/11/19 09:44:36;;;;;;;44.05;27.92;;;;;;;;;;5285069;28;20028;-79
2022/11/19 09:47:10;;;;;;;42.35;29.23;;;;;;;;;;5271687;28;20493;-80
2022/11/19 09:49:48;;;;;;;43.60;27.88;;;;;;;;;;5268291;28;20548;-80
2022/11/19 09:52:21;;;;;;;44.22;28.55;;;;;;;;;;5279605;28;20025;-80
2022/11/19 09:54:53;;;;;;;39.25;27.90;;;;;;;;;;5267549;28;20028;-81
2022/11/19 09:57:37;;;;;;;43.70;26.80;;;;;;;;;;5277239;28;20037;-80
2022/11/19 10:00:08;;;;;;;42.95;28.30;;;;;;;;;;5266152;28;20029;-80
2022/11/19 10:02:39;;;;;;;42.67;26.42;;;;;;;;;;5285315;28;20036;-80
2022/11/19 10:05:16;;;;;;;46.47;29.37;;;;;;;;;;5284939;28;20040;-81
2022/11/19 10:07:59;;;;;;;48.85;29.75;;;;;;;;;;5284237;28;20346;-81
2022/11/19 10:10:40;;;;;;;46.40;28.98;;;;;;;;;;5284912;28;20029;-81
2022/11/19 10:13:29;;;;;;;45.10;27.75;;;;;;;;;;5284156;28;20056;-81
2022/11/19 10:16:07;;;;;;;42.13;27.33;;;;;;;;;;5264707;28;20033;-81
2022/11/19 10:18:53;;;;;;;44.53;29.60;;;;;;;;;;5273802;28;20025;-81
2022/11/19 10:21:31;;;;;;;41.03;26.92;;;;;;;;;;5266504;28;20029;-80
2022/11/19 10:24:09;;;;;;;43.65;27.60;;;;;;;;;;5284283;28;20021;-80
2022/11/19 10:26:41;;;;;;;40.35;27.10;;;;;;;;;;5289023;28;20047;-80
2022/11/19 10:29:17;;;;;;;40.45;26.73;;;;;;;;;;5268778;28;20025;-80
2022/11/19 10:31:49;;;;;;;;;;;;;;;;;;5271440;28;20477;-80
2022/11/19 10:34:28;;;;;;;37.35;26.73;;;;;;;;;;5284037;28;19920;-80
2022/11/19 10:37:03;;;;;;;39.65;25.95;;;;;;;;;;5284298;28;20056;-80
2022/11/19 10:39:36;;;;;;;38.10;25.75;;;;;;;;;;5284027;28;20037;-81
2022/11/19 10:42:17;;;;;;;37.15;25.70;;;;;;;;;;5283763;28;20016;-80
2022/11/19 10:44:57;;;;;;;39.00;25.60;;;;;;;;;;5282587;28;20033;-80
2022/11/19 10:47:31;;;;;;;40.03;25.63;;;;;;;;;;5283711;28;20049;-81
2022/11/19 10:50:03;;;;;;;34.72;23.95;;;;;;;;;;5283641;28;20040;-80
2022/11/19 10:52:39;;;;;;;36.72;25.65;;;;;;;;;;5284887;28;20029;-81
2022/11/19 10:55:22;;;;;;;39.22;25.17;;;;;;;;;;5283716;28;20033;-80
2022/11/19 10:57:59;;;;;;;36.35;24.42;;;;;;;;;;5264583;28;20136;-80
2022/11/19 11:00:31;;;;;;;38.80;25.88;;;;;;;;;;5283651;28;20040;-80
2022/11/19 11:03:03;;;;;;;37.53;24.55;;;;;;;;;;5263792;28;20033;-81
2022/11/19 11:05:54;;;;;;;36.55;25.10;;;;;;;;;;5280708;28;20096;-81
2022/11/19 11:08:25;;;;;;;37.72;24.20;;;;;;;;;;5282160;28;20571;-81
2022/11/19 11:10:57;;;;;;;37.00;24.25;;;;;;;;;;5283850;28;20037;-80
2022/11/19 11:16:37;;;;;;;33.30;22.90;;;;;;;;;;5283653;28;20025;-80
2022/11/19 11:19:16;;;;;;;33.75;23.35;;;;;;;;;;5281086;28;20033;-81
2022/11/19 11:21:51;;;;;;;31.80;21.88;;;;;;;;;;5283693;28;20048;-80
2022/11/19 11:24:33;;;;;;;32.72;23.42;;;;;;;;;;5283721;28;20029;-80
2022/11/19 11:27:22;;;;;;;32.83;23.48;;;;;;;;;;5283497;28;20149;-80
2022/11/19 11:30:12;;;;;;;34.53;24.08;;;;;;;;;;5260844;28;20471;-80
2022/11/19 11:32:43;;;;;;;31.92;22.08;;;;;;;;;;5262635;28;20568;-80
2022/11/19 11:35:29;;;;;;;30.10;21.35;;;;;;;;;;5262733;28;20025;-80
2022/11/19 11:38:01;;;;;;;31.02;22.98;;;;;;;;;;5260389;28;20498;-80
2022/11/19 11:40:32;;;;;;;32.40;22.15;;;;;;;;;;5273748;28;20031;-80
2022/11/19 11:43:04;;;;;;;32.33;21.65;;;;;;;;;;5282926;28;20029;-80
2022/11/19 11:45:35;;;;;;;31.50;22.17;;;;;;;;;;5283490;28;20036;-80
2022/11/19 11:48:15;;;;;;;27.85;20.67;;;;;;;;;;5259248;28;20516;-80
2022/11/19 11:50:46;;;;;;;31.02;21.48;;;;;;;;;;5255825;28;20044;-80
2022/11/19 11:53:27;;;;;;;25.98;18.48;;;;;;;;;;5274194;28;20093;-80
2022/11/19 11:56:01;;;;;;;26.27;18.92;;;;;;;;;;5278770;28;20033;-80
2022/11/19 11:58:33;;;;;;;27.23;19.00;;;;;;;;;;5283112;28;20025;-80
2022/11/19 12:01:12;;;;;;;24.40;18.40;;;;;;;;;;5279510;28;20033;-80
2022/11/19 12:03:53;;;;;;;22.70;17.80;;;;;;;;;;5263739;28;20489;-80
2022/11/19 12:06:31;;;;;;;25.13;19.40;;;;;;;;;;5273339;28;20444;-80
2022/11/19 12:09:15;;;;;;;25.45;19.05;;;;;;;;;;5273414;28;20033;-80
2022/11/19 12:11:56;;;;;;;25.02;18.45;;;;;;;;;;5275186;28;20086;-80
2022/11/19 12:14:45;;;;;;;23.33;16.95;;;;;;;;;;5275589;28;20060;-80
2022/11/19 12:17:29;;;;;;;23.45;17.85;;;;;;;;;;5274747;28;20044;-80
2022/11/19 12:20:15;;;;;;;22.33;17.15;;;;;;;;;;5277577;28;20043;-80
2022/11/19 12:23:04;;;;;;;22.75;16.27;;;;;;;;;;5275792;28;20037;-80
2022/11/19 12:25:53;;;;;;;22.25;17.52;;;;;;;;;;5274516;28;20033;-79
2022/11/19 12:28:34;;;;;;;20.80;16.75;;;;;;;;;;5275852;28;20356;-79
2022/11/19 12:31:18;;;;;;;22.40;16.63;;;;;;;;;;5275436;28;20041;-80
2022/11/19 12:34:01;;;;;;;22.35;16.92;;;;;;;;;;5285476;28;20107;-80
2022/11/19 12:36:55;;;;;;;26.02;17.20;;;;;;;;;;5280778;28;20864;-80
2022/11/19 12:39:44;;;;;;;21.42;15.88;;;;;;;;;;5282171;28;20044;-80
2022/11/19 12:42:23;;;;;;;22.00;16.38;;;;;;;;;;5265780;28;20135;-80
2022/11/19 12:45:13;;;;;;;22.25;16.45;;;;;;;;;;5284994;28;20068;-80
2022/11/19 12:47:44;;;;;;;22.10;17.15;;;;;;;;;;5275470;28;20133;-80
2022/11/19 12:50:30;;;;;;;22.05;16.80;;;;;;;;;;5280168;28;20025;-79
2022/11/19 12:53:23;;;;;;;21.58;17.13;;;;;;;;;;5279384;28;20094;-78
2022/11/19 12:56:03;;;;;;;22.38;16.80;;;;;;;;;;5277079;28;20389;-79
2022/11/19 12:58:53;;;;;;;21.92;16.73;;;;;;;;;;5265689;28;20029;-79
2022/11/19 13:01:25;;;;;;;20.75;16.20;;;;;;;;;;5286061;28;20045;-78
2022/11/19 13:04:11;;;;;;;21.15;15.60;;;;;;;;;;5267090;28;20025;-79
2022/11/19 13:07:08;;;;;;;24.17;16.13;;;;;;;;;;5288551;28;20492;-79
2022/11/19 13:09:43;;;;;;;21.83;15.50;;;;;;;;;;5276896;28;20501;-79
2022/11/19 13:12:21;;;;;;;20.73;16.60;;;;;;;;;;5283541;28;20466;-79
2022/11/19 13:14:54;;;;;;;22.17;15.45;;;;;;;;;;5284994;28;20078;-79
2022/11/19 13:17:30;;;;;;;21.63;15.90;;;;;;;;;;5281886;28;20036;-79
2022/11/19 13:20:03;;;;;;;23.23;16.08;;;;;;;;;;5287557;28;20029;-79
2022/11/19 13:22:36;;;;;;;22.77;16.08;;;;;;;;;;5294750;28;20028;-79
2022/11/19 13:25:16;;;;;;;20.67;15.48;;;;;;;;;;5283972;28;20044;-79
2022/11/19 13:27:48;;;;;;;21.95;16.17;;;;;;;;;;5279969;28;20041;-79
2022/11/19 13:30:20;;;;;;;22.65;15.73;;;;;;;;;;5292660;28;20052;-79
2022/11/19 13:33:01;;;;;;;22.95;16.15;;;;;;;;;;5284432;28;20036;-79
2022/11/19 13:35:47;;;;;;;22.58;16.75;;;;;;;;;;5277624;28;21709;-79
2022/11/19 13:38:27;;;;;;;25.00;16.70;;;;;;;;;;5281299;28;20044;-80
2022/11/19 13:41:03;;;;;;;21.50;16.20;;;;;;;;;;5265029;28;20200;-79
2022/11/19 13:46:28;;;;;;;22.90;16.77;;;;;;;;;;5281410;28;20041;-79
2022/11/19 13:49:02;;;;;;;21.70;16.10;;;;;;;;;;5280046;28;20037;-79
2022/11/19 13:51:37;;;;;;;19.52;15.52;;;;;;;;;;5284057;28;20055;-78
2022/11/19 13:54:17;;;;;;;21.37;16.23;;;;;;;;;;5294808;28;20025;-79
2022/11/19 13:56:50;;;;;;;20.27;15.63;;;;;;;;;;5284741;28;20268;-79
2022/11/19 13:59:41;;;;;;;18.17;14.98;;;;;;;;;;5266061;28;20064;-79
2022/11/19 14:02:31;;;;;;;20.08;15.18;;;;;;;;;;5270395;28;20390;-79
2022/11/19 14:05:21;;;;;;;20.27;15.52;;;;;;;;;;5283684;28;20083;-80
2022/11/19 14:08:04;;;;;;;20.40;15.48;;;;;;;;;;5280567;28;20436;-80
2022/11/19 14:10:37;;;;;;;21.80;15.40;;;;;;;;;;5261991;28;20083;-80
2022/11/19 14:13:21;;;;;;;20.85;16.85;;;;;;;;;;5278799;28;20088;-79
2022/11/19 14:27:45;;;;;;;17.50;13.85;;;;;;;;;;5225955;28;20033;-80
2022/11/19 14:30:17;;;;;;;22.45;16.17;;;;;;;;;;5266019;28;20114;-80
2022/11/19 14:32:50;;;;;;;20.75;14.43;;;;;;;;;;5282988;28;20381;-80
2022/11/19 14:35:29;;;;;;;18.80;14.73;;;;;;;;;;5280327;28;20025;-79
2022/11/19 14:38:09;;;;;;;17.70;14.50;;;;;;;;;;5278159;28;20017;-79
2022/11/19 14:40:41;;;;;;;18.13;14.65;;;;;;;;;;5260954;28;20816;-80
2022/11/19 14:46:08;;;;;;;17.27;13.63;;;;;;;;;;5282539;28;20041;-80
2022/11/19 14:48:39;;;;;;;16.73;13.50;;;;;;;;;;5280619;28;20473;-80
2022/11/19 14:51:11;;;;;;;18.43;13.73;;;;;;;;;;5284900;28;20103;-79
2022/11/19 14:53:57;;;;;;;17.65;14.45;;;;;;;;;;5289215;28;20366;-79
2022/11/19 14:56:30;;;;;;;16.80;13.50;;;;;;;;;;5290817;28;20036;-79
2022/11/19 14:59:07;;;;;;;18.45;14.05;;;;;;;;;;5299273;28;20023;-78
2022/11/19 15:01:57;;;;;;;20.02;14.82;;;;;;;;;;5278391;28;20389;-78
2022/11/19 15:04:33;;;;;;;15.73;13.38;;;;;;;;;;5280595;28;20033;-76
2022/11/19 15:07:14;;;;;;;16.88;14.32;;;;;;;;;;5287164;28;20052;-77
2022/11/19 15:10:02;;;;;;;16.58;12.05;;;;;;;;;;5283010;28;20468;-77
2022/11/19 15:12:42;;;;;;;15.93;13.55;;;;;;;;;;5289193;28;20052;-77
2022/11/19 15:15:19;;;;;;;18.60;14.38;;;;;;;;;;5287388;28;20043;-77
2022/11/19 15:17:59;;;;;;;16.85;13.27;;;;;;;;;;5287765;28;20401;-77
2022/11/19 15:20:35;;;;;;;15.73;12.43;;;;;;;;;;5288507;28;20029;-77
2022/11/19 15:23:30;;;;;;;21.25;14.02;;;;;;;;;;5289887;28;20040;-78
2022/11/19 15:26:01;;;;;;;17.92;14.15;;;;;;;;;;5286676;28;20491;-78
2022/11/19 15:28:40;;;;;;;17.27;13.47;;;;;;;;;;5289882;28;20028;-78
2022/11/19 15:31:11;;;;;;;17.23;13.48;;;;;;;;;;5294255;28;20353;-77
2022/11/19 15:33:48;;;;;;;18.52;13.95;;;;;;;;;;5289598;28;20028;-77
2022/11/19 15:36:19;;;;;;;16.52;13.45;;;;;;;;;;5285157;28;20032;-77
2022/11/19 15:38:58;;;;;;;16.77;13.85;;;;;;;;;;5282241;28;20075;-77
2022/11/19 15:41:31;;;;;;;17.38;13.20;;;;;;;;;;5284339;28;20047;-77